sensor_id;sensor_type;location;lat;lon;timestamp;temperature;humidity
3868;DHT22;1949;48.152;11.528;2024-01-16T00:01:57;3.30;45.00
3868;DHT22;1949;48.152;11.528;2024-01-16T00:04:23;3.30;44.80
3868;DHT22;1949;48.152;11.528;2024-01-16T00:06:52;3.30;44.60
3868;DHT22;1949;48.152;11.528;2024-01-16T00:09:18;3.30;44.70
3868;DHT22;1949;48.152;11.528;2024-01-16T00:11:44;3.30;44.50
3868;DHT22;1949;48.152;11.528;2024-01-16T00:14:10;3.20;44.60
3868;DHT22;1949;48.152;11.528;2024-01-16T00:16:46;3.30;44.80
3868;DHT22;1949;48.152;11.528;2024-01-16T00:19:13;3.30;44.70
3868;DHT22;1949;48.152;11.528;2024-01-16T00:21:44;3.30;44.60
3868;DHT22;1949;48.152;11.528;2024-01-16T00:24:16;3.20;44.20
3868;DHT22;1949;48.152;11.528;2024-01-16T00:26:41;3.20;44.30
3868;DHT22;1949;48.152;11.528;2024-01-16T00:29:07;3.10;44.30
3868;DHT22;1949;48.152;11.528;2024-01-16T00:31:35;3.00;44.20
3868;DHT22;1949;48.152;11.528;2024-01-16T00:34:01;3.00;44.20
3868;DHT22;1949;48.152;11.528;2024-01-16T00:36:26;3.00;44.50
3868;DHT22;1949;48.152;11.528;2024-01-16T00:38:57;3.00;44.60
3868;DHT22;1949;48.152;11.528;2024-01-16T00:41:22;3.00;44.60
3868;DHT22;1949;48.152;11.528;2024-01-16T00:43:48;3.00;44.80
3868;DHT22;1949;48.152;11.528;2024-01-16T00:46:14;3.10;44.80
3868;DHT22;1949;48.152;11.528;2024-01-16T00:48:39;3.10;44.60
3868;DHT22;1949;48.152;11.528;2024-01-16T00:51:05;3.10;44.50
3868;DHT22;1949;48.152;11.528;2024-01-16T00:53:31;3.10;44.60
3868;DHT22;1949;48.152;11.528;2024-01-16T00:55:57;3.20;44.70
3868;DHT22;1949;48.152;11.528;2024-01-16T00:58:23;3.20;44.70
3868;DHT22;1949;48.152;11.528;2024-01-16T01:00:49;3.30;44.60
3868;DHT22;1949;48.152;11.528;2024-01-16T01:03:15;3.20;44.20
3868;DHT22;1949;48.152;11.528;2024-01-16T01:05:41;3.20;44.20
3868;DHT22;1949;48.152;11.528;2024-01-16T01:08:06;3.20;44.40
3868;DHT22;1949;48.152;11.528;2024-01-16T01:10:33;3.20;44.40
3868;DHT22;1949;48.152;11.528;2024-01-16T01:12:58;3.20;44.30
3868;DHT22;1949;48.152;11.528;2024-01-16T01:15:24;3.20;44.40
3868;DHT22;1949;48.152;11.528;2024-01-16T01:17:50;3.20;44.40
3868;DHT22;1949;48.152;11.528;2024-01-16T01:20:18;3.20;44.20
3868;DHT22;1949;48.152;11.528;2024-01-16T01:22:45;3.20;44.20
3868;DHT22;1949;48.152;11.528;2024-01-16T01:25:13;3.20;44.20
3868;DHT22;1949;48.152;11.528;2024-01-16T01:27:39;3.10;44.00
3868;DHT22;1949;48.152;11.528;2024-01-16T01:30:09;3.10;44.40
3868;DHT22;1949;48.152;11.528;2024-01-16T01:32:38;3.10;44.30
3868;DHT22;1949;48.152;11.528;2024-01-16T01:35:05;3.20;44.30
3868;DHT22;1949;48.152;11.528;2024-01-16T01:37:31;3.20;44.30
3868;DHT22;1949;48.152;11.528;2024-01-16T01:39:57;3.20;44.30
3868;DHT22;1949;48.152;11.528;2024-01-16T01:42:23;3.20;44.30
3868;DHT22;1949;48.152;11.528;2024-01-16T01:44:49;3.20;44.30
3868;DHT22;1949;48.152;11.528;2024-01-16T01:47:15;3.30;44.30
3868;DHT22;1949;48.152;11.528;2024-01-16T01:49:40;3.20;44.20
3868;DHT22;1949;48.152;11.528;2024-01-16T01:52:08;3.20;44.20
3868;DHT22;1949;48.152;11.528;2024-01-16T01:54:36;3.20;44.20
3868;DHT22;1949;48.152;11.528;2024-01-16T01:57:02;3.20;44.00
3868;DHT22;1949;48.152;11.528;2024-01-16T01:59:29;3.10;44.00
3868;DHT22;1949;48.152;11.528;2024-01-16T02:01:56;3.10;44.00
3868;DHT22;1949;48.152;11.528;2024-01-16T02:04:22;3.10;44.10
3868;DHT22;1949;48.152;11.528;2024-01-16T02:06:50;3.00;44.10
3868;DHT22;1949;48.152;11.528;2024-01-16T02:09:15;3.00;44.10
3868;DHT22;1949;48.152;11.528;2024-01-16T02:11:42;3.00;44.10
3868;DHT22;1949;48.152;11.528;2024-01-16T02:14:09;3.00;44.10
3868;DHT22;1949;48.152;11.528;2024-01-16T02:16:39;3.00;44.20
3868;DHT22;1949;48.152;11.528;2024-01-16T02:19:05;3.00;44.20
3868;DHT22;1949;48.152;11.528;2024-01-16T02:24:13;3.00;44.20
3868;DHT22;1949;48.152;11.528;2024-01-16T02:26:39;3.00;44.10
3868;DHT22;1949;48.152;11.528;2024-01-16T02:29:05;2.90;44.00
3868;DHT22;1949;48.152;11.528;2024-01-16T02:31:31;3.00;44.30
3868;DHT22;1949;48.152;11.528;2024-01-16T02:33:57;3.00;44.10
3868;DHT22;1949;48.152;11.528;2024-01-16T02:36:24;3.00;44.10
3868;DHT22;1949;48.152;11.528;2024-01-16T02:38:50;3.00;44.00
3868;DHT22;1949;48.152;11.528;2024-01-16T02:41:16;2.90;44.10
3868;DHT22;1949;48.152;11.528;2024-01-16T02:43:43;2.90;44.10
3868;DHT22;1949;48.152;11.528;2024-01-16T02:46:08;2.90;44.00
3868;DHT22;1949;48.152;11.528;2024-01-16T02:48:36;2.90;44.00
3868;DHT22;1949;48.152;11.528;2024-01-16T02:51:02;2.90;44.00
3868;DHT22;1949;48.152;11.528;2024-01-16T02:53:29;2.80;44.00
3868;DHT22;1949;48.152;11.528;2024-01-16T02:55:55;2.90;44.20
3868;DHT22;1949;48.152;11.528;2024-01-16T02:58:24;2.90;44.20
3868;DHT22;1949;48.152;11.528;2024-01-16T03:00:51;2.90;44.20
3868;DHT22;1949;48.152;11.528;2024-01-16T03:03:17;2.90;44.10
3868;DHT22;1949;48.152;11.528;2024-01-16T03:05:43;3.00;44.20
3868;DHT22;1949;48.152;11.528;2024-01-16T03:08:08;2.90;44.00
3868;DHT22;1949;48.152;11.528;2024-01-16T03:10:34;3.00;44.00
3868;DHT22;1949;48.152;11.528;2024-01-16T03:13:00;2.90;43.90
3868;DHT22;1949;48.152;11.528;2024-01-16T03:15:26;2.90;43.90
3868;DHT22;1949;48.152;11.528;2024-01-16T03:17:52;2.90;43.90
3868;DHT22;1949;48.152;11.528;2024-01-16T03:20:18;2.90;44.10
3868;DHT22;1949;48.152;11.528;2024-01-16T03:22:45;2.80;44.00
3868;DHT22;1949;48.152;11.528;2024-01-16T03:25:11;2.80;43.90
3868;DHT22;1949;48.152;11.528;2024-01-16T03:27:37;2.80;44.00
3868;DHT22;1949;48.152;11.528;2024-01-16T03:30:05;2.80;44.00
3868;DHT22;1949;48.152;11.528;2024-01-16T03:32:32;2.80;44.20
3868;DHT22;1949;48.152;11.528;2024-01-16T03:34:57;2.80;44.00
3868;DHT22;1949;48.152;11.528;2024-01-16T03:37:24;2.80;44.00
3868;DHT22;1949;48.152;11.528;2024-01-16T03:39:50;2.90;44.00
3868;DHT22;1949;48.152;11.528;2024-01-16T03:42:16;2.90;44.00
3868;DHT22;1949;48.152;11.528;2024-01-16T03:44:42;2.80;43.90
3868;DHT22;1949;48.152;11.528;2024-01-16T03:47:08;2.80;44.00
3868;DHT22;1949;48.152;11.528;2024-01-16T03:49:34;2.80;43.90
3868;DHT22;1949;48.152;11.528;2024-01-16T03:52:00;2.90;44.00
3868;DHT22;1949;48.152;11.528;2024-01-16T03:54:26;2.80;44.00
3868;DHT22;1949;48.152;11.528;2024-01-16T03:56:53;2.90;44.10
3868;DHT22;1949;48.152;11.528;2024-01-16T03:59:20;2.90;44.00
3868;DHT22;1949;48.152;11.528;2024-01-16T04:01:47;2.90;44.00
3868;DHT22;1949;48.152;11.528;2024-01-16T04:04:15;2.90;44.00
3868;DHT22;1949;48.152;11.528;2024-01-16T04:06:41;2.90;44.00
3868;DHT22;1949;48.152;11.528;2024-01-16T04:09:07;2.90;43.90
3868;DHT22;1949;48.152;11.528;2024-01-16T04:11:34;2.90;44.00
3868;DHT22;1949;48.152;11.528;2024-01-16T04:14:00;2.90;44.00
3868;DHT22;1949;48.152;11.528;2024-01-16T04:16:26;2.90;44.20
3868;DHT22;1949;48.152;11.528;2024-01-16T04:18:52;3.00;44.10
3868;DHT22;1949;48.152;11.528;2024-01-16T04:21:18;3.00;43.90
3868;DHT22;1949;48.152;11.528;2024-01-16T04:23:44;3.00;43.80
3868;DHT22;1949;48.152;11.528;2024-01-16T04:26:10;2.90;43.80
3868;DHT22;1949;48.152;11.528;2024-01-16T04:28:35;2.90;44.00
3868;DHT22;1949;48.152;11.528;2024-01-16T04:31:04;2.90;43.90
3868;DHT22;1949;48.152;11.528;2024-01-16T04:33:30;2.90;43.90
3868;DHT22;1949;48.152;11.528;2024-01-16T04:35:56;2.90;44.00
3868;DHT22;1949;48.152;11.528;2024-01-16T04:38:22;3.00;44.00
3868;DHT22;1949;48.152;11.528;2024-01-16T04:40:49;2.90;44.00
3868;DHT22;1949;48.152;11.528;2024-01-16T04:43:15;3.00;44.20
3868;DHT22;1949;48.152;11.528;2024-01-16T04:45:40;3.00;44.20
3868;DHT22;1949;48.152;11.528;2024-01-16T04:48:06;3.10;44.10
3868;DHT22;1949;48.152;11.528;2024-01-16T04:50:34;3.20;44.20
3868;DHT22;1949;48.152;11.528;2024-01-16T04:53:01;3.20;44.00
3868;DHT22;1949;48.152;11.528;2024-01-16T04:55:29;3.20;43.80
3868;DHT22;1949;48.152;11.528;2024-01-16T04:57:56;3.20;43.90
3868;DHT22;1949;48.152;11.528;2024-01-16T05:00:23;3.20;44.00
3868;DHT22;1949;48.152;11.528;2024-01-16T05:02:49;3.20;43.90
3868;DHT22;1949;48.152;11.528;2024-01-16T05:05:16;3.20;43.70
3868;DHT22;1949;48.152;11.528;2024-01-16T05:07:42;3.20;43.70
3868;DHT22;1949;48.152;11.528;2024-01-16T05:10:11;3.20;43.90
3868;DHT22;1949;48.152;11.528;2024-01-16T05:12:40;3.20;43.90
3868;DHT22;1949;48.152;11.528;2024-01-16T05:15:07;3.20;43.80
3868;DHT22;1949;48.152;11.528;2024-01-16T05:17:33;3.10;43.70
3868;DHT22;1949;48.152;11.528;2024-01-16T05:19:59;3.10;43.60
3868;DHT22;1949;48.152;11.528;2024-01-16T05:22:25;3.10;43.70
3868;DHT22;1949;48.152;11.528;2024-01-16T05:24:51;3.00;43.60
3868;DHT22;1949;48.152;11.528;2024-01-16T05:27:17;3.00;43.70
3868;DHT22;1949;48.152;11.528;2024-01-16T05:29:45;3.00;43.90
3868;DHT22;1949;48.152;11.528;2024-01-16T05:32:11;3.10;44.00
3868;DHT22;1949;48.152;11.528;2024-01-16T05:34:38;3.10;43.90
3868;DHT22;1949;48.152;11.528;2024-01-16T05:37:04;3.10;43.90
3868;DHT22;1949;48.152;11.528;2024-01-16T05:39:30;3.00;43.70
3868;DHT22;1949;48.152;11.528;2024-01-16T05:41:55;3.00;43.70
3868;DHT22;1949;48.152;11.528;2024-01-16T05:44:22;3.00;43.80
3868;DHT22;1949;48.152;11.528;2024-01-16T05:46:48;3.00;43.70
3868;DHT22;1949;48.152;11.528;2024-01-16T05:49:14;3.00;43.60
3868;DHT22;1949;48.152;11.528;2024-01-16T05:51:40;2.90;43.70
3868;DHT22;1949;48.152;11.528;2024-01-16T05:54:05;2.90;43.70
3868;DHT22;1949;48.152;11.528;2024-01-16T05:56:31;2.80;43.50
3868;DHT22;1949;48.152;11.528;2024-01-16T05:58:58;2.80;43.80
3868;DHT22;1949;48.152;11.528;2024-01-16T06:01:24;2.80;43.80
3868;DHT22;1949;48.152;11.528;2024-01-16T06:03:50;2.80;43.70
3868;DHT22;1949;48.152;11.528;2024-01-16T06:06:18;2.80;43.60
3868;DHT22;1949;48.152;11.528;2024-01-16T06:08:44;2.80;43.70
3868;DHT22;1949;48.152;11.528;2024-01-16T06:11:10;2.80;43.90
3868;DHT22;1949;48.152;11.528;2024-01-16T06:13:36;2.80;43.70
3868;DHT22;1949;48.152;11.528;2024-01-16T06:16:02;2.80;43.80
3868;DHT22;1949;48.152;11.528;2024-01-16T06:18:28;2.80;43.80
3868;DHT22;1949;48.152;11.528;2024-01-16T06:20:54;2.80;43.70
3868;DHT22;1949;48.152;11.528;2024-01-16T06:23:20;2.80;43.60
3868;DHT22;1949;48.152;11.528;2024-01-16T06:25:46;2.80;43.60
3868;DHT22;1949;48.152;11.528;2024-01-16T06:28:12;2.80;43.70
3868;DHT22;1949;48.152;11.528;2024-01-16T06:30:38;2.80;43.70
3868;DHT22;1949;48.152;11.528;2024-01-16T06:33:04;2.80;43.80
3868;DHT22;1949;48.152;11.528;2024-01-16T06:35:31;2.80;43.70
3868;DHT22;1949;48.152;11.528;2024-01-16T06:37:57;2.80;43.70
3868;DHT22;1949;48.152;11.528;2024-01-16T06:40:23;2.80;43.80
3868;DHT22;1949;48.152;11.528;2024-01-16T06:42:49;2.80;43.70
3868;DHT22;1949;48.152;11.528;2024-01-16T06:45:15;2.80;43.60
3868;DHT22;1949;48.152;11.528;2024-01-16T06:47:42;2.70;43.60
3868;DHT22;1949;48.152;11.528;2024-01-16T06:50:08;2.70;43.70
3868;DHT22;1949;48.152;11.528;2024-01-16T06:52:34;2.70;43.70
3868;DHT22;1949;48.152;11.528;2024-01-16T06:55:02;2.70;43.80
3868;DHT22;1949;48.152;11.528;2024-01-16T06:57:27;2.70;43.80
3868;DHT22;1949;48.152;11.528;2024-01-16T06:59:53;2.80;43.90
3868;DHT22;1949;48.152;11.528;2024-01-16T07:02:20;2.90;43.90
3868;DHT22;1949;48.152;11.528;2024-01-16T07:04:46;2.90;43.90
3868;DHT22;1949;48.152;11.528;2024-01-16T07:07:11;3.00;43.90
3868;DHT22;1949;48.152;11.528;2024-01-16T07:09:37;3.00;43.90
3868;DHT22;1949;48.152;11.528;2024-01-16T07:12:03;3.00;43.80
3868;DHT22;1949;48.152;11.528;2024-01-16T07:14:29;3.00;43.70
3868;DHT22;1949;48.152;11.528;2024-01-16T07:16:55;3.00;43.70
3868;DHT22;1949;48.152;11.528;2024-01-16T07:19:21;3.00;43.80
3868;DHT22;1949;48.152;11.528;2024-01-16T07:21:46;3.10;43.90
3868;DHT22;1949;48.152;11.528;2024-01-16T07:24:12;3.10;43.90
3868;DHT22;1949;48.152;11.528;2024-01-16T07:26:39;3.20;43.90
3868;DHT22;1949;48.152;11.528;2024-01-16T07:29:06;3.20;43.90
3868;DHT22;1949;48.152;11.528;2024-01-16T07:31:32;3.20;43.70
3868;DHT22;1949;48.152;11.528;2024-01-16T07:33:58;3.20;43.50
3868;DHT22;1949;48.152;11.528;2024-01-16T07:36:23;3.20;43.40
3868;DHT22;1949;48.152;11.528;2024-01-16T07:38:49;3.20;43.50
3868;DHT22;1949;48.152;11.528;2024-01-16T07:41:15;3.20;43.60
3868;DHT22;1949;48.152;11.528;2024-01-16T07:43:40;3.20;43.50
3868;DHT22;1949;48.152;11.528;2024-01-16T07:46:06;3.20;44.20
3868;DHT22;1949;48.152;11.528;2024-01-16T07:48:32;3.20;43.60
3868;DHT22;1949;48.152;11.528;2024-01-16T07:51:00;3.20;43.70
3868;DHT22;1949;48.152;11.528;2024-01-16T07:53:26;3.20;43.60
3868;DHT22;1949;48.152;11.528;2024-01-16T07:55:53;3.20;43.70
3868;DHT22;1949;48.152;11.528;2024-01-16T07:58:20;3.30;43.50
3868;DHT22;1949;48.152;11.528;2024-01-16T08:00:46;3.20;43.30
3868;DHT22;1949;48.152;11.528;2024-01-16T08:03:12;3.20;43.50
3868;DHT22;1949;48.152;11.528;2024-01-16T08:05:39;3.20;43.70
3868;DHT22;1949;48.152;11.528;2024-01-16T08:08:08;3.20;43.60
3868;DHT22;1949;48.152;11.528;2024-01-16T08:10:35;3.20;43.40
3868;DHT22;1949;48.152;11.528;2024-01-16T08:13:00;3.20;43.60
3868;DHT22;1949;48.152;11.528;2024-01-16T08:15:26;3.20;43.60
3868;DHT22;1949;48.152;11.528;2024-01-16T08:17:54;3.20;43.50
3868;DHT22;1949;48.152;11.528;2024-01-16T08:20:20;3.20;43.50
3868;DHT22;1949;48.152;11.528;2024-01-16T08:22:45;3.20;43.50
3868;DHT22;1949;48.152;11.528;2024-01-16T08:25:11;3.20;43.60
3868;DHT22;1949;48.152;11.528;2024-01-16T08:27:37;3.20;43.70
3868;DHT22;1949;48.152;11.528;2024-01-16T08:30:04;3.30;43.70
3868;DHT22;1949;48.152;11.528;2024-01-16T08:32:31;3.30;43.60
3868;DHT22;1949;48.152;11.528;2024-01-16T08:34:57;3.30;43.60
3868;DHT22;1949;48.152;11.528;2024-01-16T08:37:23;3.30;43.50
3868;DHT22;1949;48.152;11.528;2024-01-16T08:39:51;3.40;43.70
3868;DHT22;1949;48.152;11.528;2024-01-16T08:42:17;3.40;43.60
3868;DHT22;1949;48.152;11.528;2024-01-16T08:44:43;3.40;43.80
3868;DHT22;1949;48.152;11.528;2024-01-16T08:47:09;3.50;43.90
3868;DHT22;1949;48.152;11.528;2024-01-16T08:49:35;3.60;43.90
3868;DHT22;1949;48.152;11.528;2024-01-16T08:52:01;3.60;43.90
3868;DHT22;1949;48.152;11.528;2024-01-16T08:54:28;3.70;43.60
3868;DHT22;1949;48.152;11.528;2024-01-16T08:56:54;3.70;43.60
3868;DHT22;1949;48.152;11.528;2024-01-16T08:59:20;3.70;43.60
3868;DHT22;1949;48.152;11.528;2024-01-16T09:01:46;3.70;43.70
3868;DHT22;1949;48.152;11.528;2024-01-16T09:04:12;3.80;43.60
3868;DHT22;1949;48.152;11.528;2024-01-16T09:06:38;3.90;43.70
3868;DHT22;1949;48.152;11.528;2024-01-16T09:09:04;3.90;43.70
3868;DHT22;1949;48.152;11.528;2024-01-16T09:11:30;3.90;43.60
3868;DHT22;1949;48.152;11.528;2024-01-16T09:13:57;4.00;43.60
3868;DHT22;1949;48.152;11.528;2024-01-16T09:16:23;4.00;43.70
3868;DHT22;1949;48.152;11.528;2024-01-16T09:18:49;4.10;43.70
3868;DHT22;1949;48.152;11.528;2024-01-16T09:21:15;4.10;43.50
3868;DHT22;1949;48.152;11.528;2024-01-16T09:23:41;4.20;43.50
3868;DHT22;1949;48.152;11.528;2024-01-16T09:26:08;4.10;43.40
3868;DHT22;1949;48.152;11.528;2024-01-16T09:28:34;4.20;43.50
3868;DHT22;1949;48.152;11.528;2024-01-16T09:30:59;4.20;43.40
3868;DHT22;1949;48.152;11.528;2024-01-16T09:33:25;4.10;43.30
3868;DHT22;1949;48.152;11.528;2024-01-16T09:35:52;4.10;43.40
3868;DHT22;1949;48.152;11.528;2024-01-16T09:38:18;4.10;43.40
3868;DHT22;1949;48.152;11.528;2024-01-16T09:40:45;4.20;43.70
3868;DHT22;1949;48.152;11.528;2024-01-16T09:43:12;4.30;43.80
3868;DHT22;1949;48.152;11.528;2024-01-16T09:45:38;4.30;43.60
3868;DHT22;1949;48.152;11.528;2024-01-16T09:48:07;4.40;43.60
3868;DHT22;1949;48.152;11.528;2024-01-16T09:50:34;4.50;43.50
3868;DHT22;1949;48.152;11.528;2024-01-16T09:53:00;4.50;43.50
3868;DHT22;1949;48.152;11.528;2024-01-16T09:55:26;4.50;43.40
3868;DHT22;1949;48.152;11.528;2024-01-16T09:57:53;4.50;43.50
3868;DHT22;1949;48.152;11.528;2024-01-16T10:00:19;4.60;43.30
3868;DHT22;1949;48.152;11.528;2024-01-16T10:02:45;4.60;43.30
3868;DHT22;1949;48.152;11.528;2024-01-16T10:05:13;4.60;43.30
3868;DHT22;1949;48.152;11.528;2024-01-16T10:07:41;4.60;43.40
3868;DHT22;1949;48.152;11.528;2024-01-16T10:10:10;4.70;43.40
3868;DHT22;1949;48.152;11.528;2024-01-16T10:12:39;4.70;43.30
3868;DHT22;1949;48.152;11.528;2024-01-16T10:15:09;4.70;43.10
3868;DHT22;1949;48.152;11.528;2024-01-16T10:17:39;4.70;43.10
3868;DHT22;1949;48.152;11.528;2024-01-16T10:20:06;4.70;43.30
3868;DHT22;1949;48.152;11.528;2024-01-16T10:22:34;4.80;43.40
3868;DHT22;1949;48.152;11.528;2024-01-16T10:25:07;4.80;43.10
3868;DHT22;1949;48.152;11.528;2024-01-16T10:27:34;4.80;43.00
3868;DHT22;1949;48.152;11.528;2024-01-16T10:30:01;4.80;43.00
3868;DHT22;1949;48.152;11.528;2024-01-16T10:32:36;4.80;42.90
3868;DHT22;1949;48.152;11.528;2024-01-16T10:37:46;4.80;43.00
3868;DHT22;1949;48.152;11.528;2024-01-16T10:40:22;4.80;42.90
3868;DHT22;1949;48.152;11.528;2024-01-16T10:43:04;4.70;42.90
3868;DHT22;1949;48.152;11.528;2024-01-16T10:45:34;4.70;42.90
3868;DHT22;1949;48.152;11.528;2024-01-16T10:48:07;4.70;43.20
3868;DHT22;1949;48.152;11.528;2024-01-16T10:50:34;4.80;43.40
3868;DHT22;1949;48.152;11.528;2024-01-16T10:53:07;4.90;43.20
3868;DHT22;1949;48.152;11.528;2024-01-16T10:55:53;4.90;43.00
3868;DHT22;1949;48.152;11.528;2024-01-16T10:58:24;5.00;43.20
3868;DHT22;1949;48.152;11.528;2024-01-16T11:00:53;5.00;43.20
3868;DHT22;1949;48.152;11.528;2024-01-16T11:05:52;5.10;43.10
3868;DHT22;1949;48.152;11.528;2024-01-16T11:08:19;5.20;43.10
3868;DHT22;1949;48.152;11.528;2024-01-16T11:10:48;5.20;42.90
3868;DHT22;1949;48.152;11.528;2024-01-16T11:13:15;5.20;42.80
3868;DHT22;1949;48.152;11.528;2024-01-16T11:15:43;5.20;42.70
3868;DHT22;1949;48.152;11.528;2024-01-16T11:18:14;5.20;42.80
3868;DHT22;1949;48.152;11.528;2024-01-16T11:20:41;5.30;43.00
3868;DHT22;1949;48.152;11.528;2024-01-16T11:23:10;5.30;42.80
3868;DHT22;1949;48.152;11.528;2024-01-16T11:25:36;5.40;42.90
3868;DHT22;1949;48.152;11.528;2024-01-16T11:28:13;5.50;43.00
3868;DHT22;1949;48.152;11.528;2024-01-16T11:30:40;5.50;43.00
3868;DHT22;1949;48.152;11.528;2024-01-16T11:33:06;5.60;42.90
3868;DHT22;1949;48.152;11.528;2024-01-16T11:35:38;5.70;42.80
3868;DHT22;1949;48.152;11.528;2024-01-16T11:38:31;5.70;42.40
3868;DHT22;1949;48.152;11.528;2024-01-16T11:40:59;5.70;42.70
3868;DHT22;1949;48.152;11.528;2024-01-16T11:46:05;5.80;42.70
3868;DHT22;1949;48.152;11.528;2024-01-16T11:48:31;5.90;42.70
3868;DHT22;1949;48.152;11.528;2024-01-16T11:50:57;5.90;42.40
3868;DHT22;1949;48.152;11.528;2024-01-16T11:53:39;5.90;42.20
3868;DHT22;1949;48.152;11.528;2024-01-16T12:01:19;6.00;42.30
3868;DHT22;1949;48.152;11.528;2024-01-16T12:03:45;6.00;42.30
3868;DHT22;1949;48.152;11.528;2024-01-16T12:06:11;6.00;42.20
3868;DHT22;1949;48.152;11.528;2024-01-16T12:08:36;6.10;42.30
3868;DHT22;1949;48.152;11.528;2024-01-16T12:11:04;6.10;42.30
3868;DHT22;1949;48.152;11.528;2024-01-16T12:13:30;6.10;42.20
3868;DHT22;1949;48.152;11.528;2024-01-16T12:16:00;6.20;42.20
3868;DHT22;1949;48.152;11.528;2024-01-16T12:18:27;6.30;42.30
3868;DHT22;1949;48.152;11.528;2024-01-16T12:20:54;6.40;42.20
3868;DHT22;1949;48.152;11.528;2024-01-16T12:23:19;6.40;42.10
3868;DHT22;1949;48.152;11.528;2024-01-16T12:25:52;6.50;42.00
3868;DHT22;1949;48.152;11.528;2024-01-16T12:28:21;6.50;41.80
3868;DHT22;1949;48.152;11.528;2024-01-16T12:30:50;6.50;41.60
3868;DHT22;1949;48.152;11.528;2024-01-16T12:33:22;6.40;41.50
3868;DHT22;1949;48.152;11.528;2024-01-16T12:35:48;6.40;41.80
3868;DHT22;1949;48.152;11.528;2024-01-16T12:38:15;6.40;41.90
3868;DHT22;1949;48.152;11.528;2024-01-16T12:40:49;6.50;41.80
3868;DHT22;1949;48.152;11.528;2024-01-16T12:43:17;6.50;41.90
3868;DHT22;1949;48.152;11.528;2024-01-16T12:45:55;6.60;42.00
3868;DHT22;1949;48.152;11.528;2024-01-16T12:48:27;6.70;41.80
3868;DHT22;1949;48.152;11.528;2024-01-16T12:51:00;6.70;41.40
3868;DHT22;1949;48.152;11.528;2024-01-16T12:53:29;6.60;41.30
3868;DHT22;1949;48.152;11.528;2024-01-16T12:56:02;6.60;41.60
3868;DHT22;1949;48.152;11.528;2024-01-16T12:58:39;6.60;41.60
3868;DHT22;1949;48.152;11.528;2024-01-16T13:01:25;6.60;41.20
3868;DHT22;1949;48.152;11.528;2024-01-16T13:03:52;6.60;41.30
3868;DHT22;1949;48.152;11.528;2024-01-16T13:06:19;6.50;41.20
3868;DHT22;1949;48.152;11.528;2024-01-16T13:08:49;6.50;41.30
3868;DHT22;1949;48.152;11.528;2024-01-16T13:11:20;6.50;41.50
3868;DHT22;1949;48.152;11.528;2024-01-16T13:13:47;6.50;41.20
3868;DHT22;1949;48.152;11.528;2024-01-16T13:16:17;6.40;41.10
3868;DHT22;1949;48.152;11.528;2024-01-16T13:18:43;6.40;41.20
3868;DHT22;1949;48.152;11.528;2024-01-16T13:21:09;6.30;41.20
3868;DHT22;1949;48.152;11.528;2024-01-16T13:23:35;6.30;41.30
3868;DHT22;1949;48.152;11.528;2024-01-16T13:26:02;6.30;41.40
3868;DHT22;1949;48.152;11.528;2024-01-16T13:28:30;6.40;41.40
3868;DHT22;1949;48.152;11.528;2024-01-16T13:30:56;6.40;41.40
3868;DHT22;1949;48.152;11.528;2024-01-16T13:33:25;6.50;41.40
3868;DHT22;1949;48.152;11.528;2024-01-16T13:35:53;6.50;41.40
3868;DHT22;1949;48.152;11.528;2024-01-16T13:38:20;6.60;41.40
3868;DHT22;1949;48.152;11.528;2024-01-16T13:40:47;6.50;41.00
3868;DHT22;1949;48.152;11.528;2024-01-16T13:43:13;6.50;41.10
3868;DHT22;1949;48.152;11.528;2024-01-16T13:45:39;6.50;41.10
3868;DHT22;1949;48.152;11.528;2024-01-16T13:48:05;6.50;41.10
3868;DHT22;1949;48.152;11.528;2024-01-16T13:50:32;6.50;41.00
3868;DHT22;1949;48.152;11.528;2024-01-16T13:53:01;6.60;41.20
3868;DHT22;1949;48.152;11.528;2024-01-16T13:55:27;6.60;41.30
3868;DHT22;1949;48.152;11.528;2024-01-16T13:57:55;6.60;41.00
3868;DHT22;1949;48.152;11.528;2024-01-16T14:00:23;6.60;40.90
3868;DHT22;1949;48.152;11.528;2024-01-16T14:02:49;6.60;41.10
3868;DHT22;1949;48.152;11.528;2024-01-16T14:05:17;6.60;41.20
3868;DHT22;1949;48.152;11.528;2024-01-16T14:07:52;6.60;41.00
3868;DHT22;1949;48.152;11.528;2024-01-16T14:10:20;6.60;40.90
3868;DHT22;1949;48.152;11.528;2024-01-16T14:12:48;6.60;41.00
3868;DHT22;1949;48.152;11.528;2024-01-16T14:15:16;6.60;41.00
3868;DHT22;1949;48.152;11.528;2024-01-16T14:17:45;6.70;41.00
3868;DHT22;1949;48.152;11.528;2024-01-16T14:20:12;6.70;41.00
3868;DHT22;1949;48.152;11.528;2024-01-16T14:22:41;6.70;41.00
3868;DHT22;1949;48.152;11.528;2024-01-16T14:25:08;6.70;40.80
3868;DHT22;1949;48.152;11.528;2024-01-16T14:30:13;6.80;40.90
3868;DHT22;1949;48.152;11.528;2024-01-16T14:32:43;6.80;40.90
3868;DHT22;1949;48.152;11.528;2024-01-16T14:35:13;6.80;40.90
3868;DHT22;1949;48.152;11.528;2024-01-16T14:37:40;6.90;41.10
3868;DHT22;1949;48.152;11.528;2024-01-16T14:40:07;6.90;41.00
3868;DHT22;1949;48.152;11.528;2024-01-16T14:42:49;6.90;41.00
3868;DHT22;1949;48.152;11.528;2024-01-16T14:45:17;6.90;41.00
3868;DHT22;1949;48.152;11.528;2024-01-16T14:47:44;6.90;41.00
3868;DHT22;1949;48.152;11.528;2024-01-16T14:50:11;6.90;41.00
3868;DHT22;1949;48.152;11.528;2024-01-16T14:52:38;6.90;41.00
3868;DHT22;1949;48.152;11.528;2024-01-16T14:55:06;6.90;41.10
3868;DHT22;1949;48.152;11.528;2024-01-16T14:57:35;6.90;41.00
3868;DHT22;1949;48.152;11.528;2024-01-16T15:00:11;6.90;40.90
3868;DHT22;1949;48.152;11.528;2024-01-16T15:02:58;6.90;41.00
3868;DHT22;1949;48.152;11.528;2024-01-16T15:05:24;6.90;40.90
3868;DHT22;1949;48.152;11.528;2024-01-16T15:07:51;6.90;41.00
3868;DHT22;1949;48.152;11.528;2024-01-16T15:10:21;6.90;41.00
3868;DHT22;1949;48.152;11.528;2024-01-16T15:12:49;6.90;41.00
3868;DHT22;1949;48.152;11.528;2024-01-16T15:15:17;6.90;41.00
3868;DHT22;1949;48.152;11.528;2024-01-16T15:17:44;6.90;41.00
3868;DHT22;1949;48.152;11.528;2024-01-16T15:20:10;6.90;41.10
3868;DHT22;1949;48.152;11.528;2024-01-16T15:22:42;6.90;41.10
3868;DHT22;1949;48.152;11.528;2024-01-16T15:25:11;6.90;41.20
3868;DHT22;1949;48.152;11.528;2024-01-16T15:27:40;7.00;41.20
3868;DHT22;1949;48.152;11.528;2024-01-16T15:30:06;7.00;41.20
3868;DHT22;1949;48.152;11.528;2024-01-16T15:32:36;7.00;41.60
3868;DHT22;1949;48.152;11.528;2024-01-16T15:35:03;7.20;41.50
3868;DHT22;1949;48.152;11.528;2024-01-16T15:37:37;7.20;41.20
3868;DHT22;1949;48.152;11.528;2024-01-16T15:40:04;7.20;41.10
3868;DHT22;1949;48.152;11.528;2024-01-16T15:42:32;7.20;41.20
3868;DHT22;1949;48.152;11.528;2024-01-16T15:44:58;7.20;41.30
3868;DHT22;1949;48.152;11.528;2024-01-16T15:47:24;7.30;41.20
3868;DHT22;1949;48.152;11.528;2024-01-16T15:49:51;7.30;41.00
3868;DHT22;1949;48.152;11.528;2024-01-16T15:52:20;7.20;40.60
3868;DHT22;1949;48.152;11.528;2024-01-16T15:54:46;7.10;40.60
3868;DHT22;1949;48.152;11.528;2024-01-16T15:57:12;7.00;40.70
3868;DHT22;1949;48.152;11.528;2024-01-16T15:59:38;7.10;41.10
3868;DHT22;1949;48.152;11.528;2024-01-16T16:02:04;7.10;40.80
3868;DHT22;1949;48.152;11.528;2024-01-16T16:04:29;7.00;40.70
3868;DHT22;1949;48.152;11.528;2024-01-16T16:06:55;7.00;40.60
3868;DHT22;1949;48.152;11.528;2024-01-16T16:09:21;6.90;40.50
3868;DHT22;1949;48.152;11.528;2024-01-16T16:11:48;6.80;40.50
3868;DHT22;1949;48.152;11.528;2024-01-16T16:14:17;6.70;40.60
3868;DHT22;1949;48.152;11.528;2024-01-16T16:16:45;6.80;40.80
3868;DHT22;1949;48.152;11.528;2024-01-16T16:19:13;6.80;40.80
3868;DHT22;1949;48.152;11.528;2024-01-16T16:21:38;6.80;40.80